Metar Cercanos

 

LEPA - Palma De Mallorc, Spain
Distance from station: ONO 38km
Actualización: Wed, 04-Aug-2021 6:30pm CEST
Few Clouds
Few Clouds
 Viento del SO
Viento: SO 22 km/h
Temperatura: 29°C
Indice Calor: 31°C
Rocío: 21°C
Humedad: 62%
Barómetro: 1012 hPa
Clouds: Few Clouds
Visibility: 10 km
Cloud details: Few Clouds 762 m
2021/08/04 16:30 LEPA 041630Z 22012KT 190V250 9999 FEW025 29/21 Q1012 NOSIG
LEMH - Mahon/Menorca Is, Spain
Distance from station: ENE 105km
Actualización: Wed, 04-Aug-2021 6:30pm CEST
Parcialmente nuboso
Parcialmente nuboso
 Viento del SO
Viento: SO 19 km/h
Temperatura: 27°C
Indice Calor: 29°C
Rocío: 22°C
Humedad: 74%
Barómetro: 1013 hPa
Clouds: Parcialmente nuboso
Visibility: 10 km
Cloud details: Parcialmente nuboso 549 m
2021/08/04 16:30 LEMH 041630Z 23010KT 200V280 9999 SCT018 27/22 Q1013
 
LEIB - Ibiza/Es Codola, Spain
Distance from station: OSO 165km
Actualización: Wed, 04-Aug-2021 6:30pm CEST
Few Clouds
Few Clouds
 Viento del SO
Viento: SO 17 km/h
Temperatura: 27°C
Indice Calor: 30°C
Rocío: 23°C
Humedad: 79%
Barómetro: 1013 hPa
Clouds: Few Clouds
Visibility: 10 km
Cloud details: Few Clouds 335 m
2021/08/04 16:30 LEIB 041630Z 22009KT 180V250 9999 FEW011 27/23 Q1013 NOSIG
LEBL - Barcelona Airpor, Spain
Distance from station: NNO 225km
Actualización: Wed, 04-Aug-2021 6:30pm CEST
Muy nuboso
Muy nuboso
 Viento del E
Viento: E 37 km/h
Temperatura: 24°C
Rocío: 20°C
Humedad: 78%
Barómetro: 1013 hPa
Clouds: Muy nuboso
Visibility: 10 km
Cloud details: Few Clouds 305 m
Muy nuboso 427 m
2021/08/04 16:30 LEBL 041630Z 08020KT 9999 FEW010 BKN014 24/20 Q1013 NOSIG
 
LEVC - Valencia (civ/Mi, Spain
Distance from station: NO 188km
Actualización: Wed, 04-Aug-2021 6:30pm CEST
Despejado
Despejado
 Viento del ESE
Viento: ESE 20 km/h
Temperatura: 29°C
Indice Calor: 29°C
Rocío: 18°C
Humedad: 51%
Barómetro: 1013 hPa
Resumen: Despejado
Visibility: greater than 10 km
2021/08/04 16:30 LEVC 041630Z 11011KT 050V140 CAVOK 29/18 Q1013 NOSIG
LEGE - Gerona/Costa Bra, Spain
Distance from station: N 276km
Actualización: Wed, 04-Aug-2021 6:30pm CEST
Thunderstorm, Lluvia, Muy nuboso
Thunderstorm, Lluvia, Muy nuboso
 Viento del O
Viento: O 6 km/h
Temperatura: 18°C
Rocío: 17°C
Humedad: 94%
Barómetro: 1014 hPa
Resumen: Thunderstorm, Lluvia
Clouds: Muy nuboso
Visibility: 9 km
Cloud details: Parcialmente nuboso 305 m
Few Clouds 762 m
Muy nuboso 1219 m
2021/08/04 16:30 LEGE 041630Z 27003KT 190V300 9000 TS RA SCT010 FEW025CB BKN040 18/17 Q1014
 
LEAL - Alicante/El Alte, Spain
Distance from station: OSO 344km
Actualización: Wed, 04-Aug-2021 6:30pm CEST
Despejado
Despejado
 Viento del S
Viento: S 17 km/h
Temperatura: 33°C
Rocío: 17°C
Humedad: 38%
Barómetro: 1011 hPa
Resumen: Despejado
Visibility: greater than 10 km
2021/08/04 16:30 LEAL 041630Z 19009KT 140V230 CAVOK 33/17 Q1011 NOSIG
LEAM - Almeria Airport, Spain
Distance from station: SSO 56km
Actualización: Wed, 04-Aug-2021 6:30pm CEST
Despejado
Despejado
 Viento del S
Viento: S 19 km/h
Temperatura: 25°C
Rocío: 20°C
Humedad: 74%
Barómetro: 1013 hPa
Resumen: Despejado
Visibility: greater than 10 km
2021/08/04 16:30 LEAM 041630Z 19010KT 160V220 CAVOK 25/20 Q1013
 
LEZG - Zaragoza (mil/Ci, Spain
Distance from station: NO 431km
Actualización: Wed, 04-Aug-2021 6:30pm CEST
Few Clouds
Few Clouds
 Viento del NO
Viento: NO 20 km/h
Temperatura: 30°C
Rocío: 13°C
Humedad: 35%
Barómetro: 1014 hPa
Clouds: Few Clouds
Visibility: 10 km
Cloud details: Few Clouds 1829 m
2021/08/04 16:30 LEZG 041630Z 32011KT 290V350 9999 FEW060 30/13 Q1014
LEMD - Madrid/Barajas, Spain
Distance from station: ONO 234km
Actualización: Wed, 04-Aug-2021 6:30pm CEST
Few Clouds
Few Clouds
 Viento del OSO
Viento: OSO 19 km/h
Temperatura: 32°C
Rocío: 6°C
Humedad: 20%
Barómetro: 1015 hPa
Clouds: Few Clouds
Visibility: 10 km
Cloud details: Few Clouds 2438 m
2021/08/04 16:30 LEMD 041630Z 25010KT 9999 FEW080 32/06 Q1015 NOSIG
 
LEGR - Granada Airport, Spain
Distance from station: OSO 62km
Actualización: Wed, 04-Aug-2021 6:30pm CEST
Despejado
Despejado
 Viento del O
Viento: O 24 km/h
Temperatura: 34°C
Rocío: 7°C
Humedad: 19%
Barómetro: 1016 hPa
Resumen: Despejado
Visibility: greater than 10 km
2021/08/04 16:30 LEGR 041630Z 27013KT 240V300 CAVOK 34/07 Q1016
LEMG - Malaga (civ/Mil), Spain
Distance from station: OSO 227km
Actualización: Wed, 04-Aug-2021 6:30pm CEST
Despejado
Despejado
 Viento del S
Viento: S 19 km/h
Temperatura: 34°C
Rocío: 17°C
Humedad: 36%
Barómetro: 1012 hPa
Resumen: Despejado
Visibility: greater than 10 km
2021/08/04 16:30 LEMG 041630Z 18010KT 120V220 CAVOK 34/17 Q1012 NOSIG
 
LEZL - Sevilla (civ/Mil, Spain
Distance from station: S 318km
Actualización: Wed, 04-Aug-2021 6:30pm CEST
Despejado
Despejado
 Viento del SO
Viento: SO 20 km/h
Temperatura: 35°C
Rocío: 14°C
Humedad: 28%
Barómetro: 1013 hPa
Resumen: Despejado
Visibility: greater than 10 km
2021/08/04 16:30 LEZL 041630Z 22011KT 170V270 CAVOK 35/14 Q1013 NOSIG
LEVT - Vitoria, Spain
Distance from station: NO 226km
Actualización: Wed, 04-Aug-2021 6:30pm CEST
Muy nuboso
Muy nuboso
 Viento del NNE
Viento: NNE 30 km/h
Temperatura: 19°C
Rocío: 16°C
Humedad: 83%
Barómetro: 1018 hPa
Clouds: Muy nuboso
Visibility: 10 km
Cloud details: Few Clouds 640 m
Muy nuboso 1006 m
Muy nuboso 1219 m
2021/08/04 16:30 LEVT 041630Z 03016KT 9999 FEW021 BKN033 BKN040 19/16 Q1018
 
LEBB - Bilbao/Sondica, Spain
Distance from station: NNO 235km
Actualización: Wed, 04-Aug-2021 6:30pm CEST
Muy nuboso
Muy nuboso
 Viento del NO
Viento: NO 13 km/h
Temperatura: 21°C
Rocío: 18°C
Humedad: 83%
Barómetro: 1018 hPa
Clouds: Muy nuboso
Visibility: 10 km
Cloud details: Few Clouds 518 m
Muy nuboso 1067 m
2021/08/04 16:30 LEBB 041630Z 31007KT 280V350 9999 FEW017 BKN035 21/18 Q1018 NOSIG
LESO - San Sebastian/Fu, Spain
Distance from station: N 231km
Actualización: Wed, 04-Aug-2021 6:30pm CEST
Cubierto
Cubierto
 Viento del O
Viento: O 9 km/h
Temperatura: 21°C
Rocío: 18°C
Humedad: 83%
Barómetro: 1018 hPa
Clouds: Cubierto
Visibility: 10 km
Cloud details: Few Clouds 549 m
Muy nuboso 762 m
Cubierto 1067 m
2021/08/04 16:30 LESO 041630Z 26005KT 200V350 9999 FEW018 BKN025 OVC035 21/18 Q1018
 
LEVD - Valladolid(Mil/C, Spain
Distance from station: ONO 239km
Actualización: Wed, 04-Aug-2021 6:30pm CEST
Despejado
Despejado
 Viento del O
Viento: O 15 km/h
Temperatura: 28°C
Rocío: 7°C
Humedad: 26%
Barómetro: 1018 hPa
Resumen: Despejado
Visibility: greater than 10 km
2021/08/04 16:30 LEVD 041630Z 26008KT 200V330 CAVOK 28/07 Q1018
LESA - Salamanca (civ/M, Spain
Distance from station: ONO 349km
Actualización: Wed, 04-Aug-2021 6:30pm CEST
Despejado
Despejado
 Viento del ONO
Viento: ONO 17 km/h
Temperatura: 28°C
Rocío: 7°C
Humedad: 26%
Barómetro: 1018 hPa
Resumen: Despejado
Visibility: greater than 10 km
2021/08/04 16:30 LESA 041630Z 30009KT 280V340 CAVOK 28/07 Q1018
 
LEXJ - Santander/Paraya, Spain
Distance from station: NNO 247km
Actualización: Wed, 04-Aug-2021 6:30pm CEST
Muy nuboso
Muy nuboso
 Viento del O
Viento: O 13 km/h
Temperatura: 20°C
Rocío: 16°C
Humedad: 78%
Barómetro: 1018 hPa
Clouds: Muy nuboso
Visibility: 10 km
Cloud details: Few Clouds 518 m
Parcialmente nuboso 732 m
Muy nuboso 1067 m
2021/08/04 16:30 LEXJ 041630Z 27007KT 230V290 9999 FEW017 SCT024 BKN035 20/16 Q1018
LEAS - Asturias/Aviles, Spain
Distance from station: NO 214km
Actualización: Wed, 04-Aug-2021 6:30pm CEST
Muy nuboso
Muy nuboso
 Viento del ONO
Viento: ONO 11 km/h
Temperatura: 18°C
Rocío: 17°C
Humedad: 94%
Barómetro: 1019 hPa
Clouds: Muy nuboso
Visibility: 10 km
Cloud details: Muy nuboso 366 m
2021/08/04 16:30 LEAS 041630Z 30006KT 260V340 9999 BKN012 18/17 Q1019 TEMPO BKN009
 
LECO - La Coruna/Alvedr, Spain
Distance from station: ONO 222km
Actualización: Wed, 04-Aug-2021 6:30pm CEST
Muy nuboso
Muy nuboso
 Viento del ONO
Viento: ONO 15 km/h
Temperatura: 21°C
Rocío: 15°C
Humedad: 69%
Barómetro: 1019 hPa
Clouds: Muy nuboso
Visibility: 10 km
Cloud details: Muy nuboso 853 m
2021/08/04 16:30 LECO 041630Z 30008KT 240V030 9999 BKN028 21/15 Q1019 NOSIG
LEVX - Vigo/Peinador, Spain
Distance from station: O 214km
Actualización: Wed, 04-Aug-2021 6:30pm CEST
Parcialmente nuboso
Parcialmente nuboso
 Viento del O
Viento: O 22 km/h
Temperatura: 20°C
Rocío: 17°C
Humedad: 83%
Barómetro: 1020 hPa
Clouds: Parcialmente nuboso
Visibility: 10 km
Cloud details: Parcialmente nuboso 488 m
2021/08/04 16:30 LEVX 041630Z 27012KT 9999 SCT016 20/17 Q1020 NOSIG